Time;durP1;ratioP1;P1;durP2;ratioP2;P2;SDS_P1;SDS_P2;PMS_P1;PMS_P2;Temp;Humidity;BMP_temperature;BMP_pressure;BME280_temperature;BME280_humidity;BME280_pressure;Samples;Min_cycle;Max_cycle;Signal;HPM_P1;HPM_P2
2022/04/12 00:01:57;;;;;;;22.40;11.45;;;;;;;;;;5056271;28;20049;-84
2022/04/12 00:04:42;;;;;;;17.02;8.00;;;;;;;;;;5056193;28;20479;-83
2022/04/12 00:07:27;;;;;;;20.38;9.00;;;;;;;;;;5055610;28;20479;-83
2022/04/12 00:10:13;;;;;;;17.45;8.18;;;;;;;;;;5056349;28;20379;-83
2022/04/12 00:13:00;;;;;;;20.63;9.88;;;;;;;;;;5055892;28;20398;-83
2022/04/12 00:15:45;;;;;;;33.22;13.55;;;;;;;;;;5086708;28;20033;-82
2022/04/12 00:21:35;;;;;;;47.83;20.00;;;;;;;;;;5061552;28;20033;-81
2022/04/12 00:24:20;;;;;;;45.13;19.20;;;;;;;;;;5056557;28;20049;-81
2022/04/12 00:27:06;;;;;;;44.42;17.83;;;;;;;;;;5055142;28;20056;-82
2022/04/12 00:29:52;;;;;;;39.80;15.73;;;;;;;;;;5062596;28;20049;-83
2022/04/12 00:32:38;;;;;;;36.50;17.77;;;;;;;;;;5056642;28;20394;-83
2022/04/12 00:35:24;;;;;;;42.47;19.33;;;;;;;;;;5055489;28;20049;-82
2022/04/12 00:38:18;;;;;;;39.20;18.73;;;;;;;;;;5056075;28;20045;-83
2022/04/12 00:41:15;;;;;;;42.42;18.30;;;;;;;;;;5054990;28;20049;-82
2022/04/12 00:44:02;;;;;;;39.28;16.15;;;;;;;;;;5055364;28;20386;-83
2022/04/12 00:46:47;;;;;;;30.38;14.48;;;;;;;;;;5055620;28;20040;-82
2022/04/12 00:49:33;;;;;;;25.25;10.60;;;;;;;;;;5055258;28;20041;-83
2022/04/12 00:52:19;;;;;;;26.05;10.60;;;;;;;;;;5056109;28;20045;-83
2022/04/12 00:55:05;;;;;;;23.75;10.85;;;;;;;;;;5056553;28;20037;-82
2022/04/12 00:57:51;;;;;;;23.92;11.27;;;;;;;;;;5055207;28;20048;-83
2022/04/12 01:00:37;;;;;;;27.35;13.23;;;;;;;;;;5054596;28;20382;-83
2022/04/12 01:03:23;;;;;;;29.52;13.82;;;;;;;;;;5054760;28;20041;-83
2022/04/12 01:06:08;;;;;;;30.80;15.60;;;;;;;;;;5054139;28;20044;-82
2022/04/12 01:08:54;;;;;;;53.45;21.45;;;;;;;;;;5055336;28;20471;-82
2022/04/12 01:11:40;;;;;;;50.92;23.08;;;;;;;;;;5054345;28;20474;-83
2022/04/12 01:14:25;;;;;;;61.05;25.25;;;;;;;;;;5055208;28;20037;-83
2022/04/12 01:17:12;;;;;;;57.50;25.55;;;;;;;;;;5054587;28;20041;-83
2022/04/12 01:19:57;;;;;;;53.75;24.05;;;;;;;;;;5054721;28;20363;-82
2022/04/12 01:23:09;;;;;;;55.05;23.30;;;;;;;;;;5054724;28;20037;-82
2022/04/12 01:25:55;;;;;;;57.92;23.17;;;;;;;;;;5061061;28;20494;-84
2022/04/12 01:28:44;;;;;;;46.65;20.73;;;;;;;;;;5054852;28;20041;-83
2022/04/12 01:31:29;;;;;;;31.08;14.77;;;;;;;;;;5053797;28;20041;-83
2022/04/12 01:34:15;;;;;;;34.20;13.70;;;;;;;;;;5053869;28;20048;-83
2022/04/12 01:37:02;;;;;;;28.98;14.15;;;;;;;;;;5054524;28;20482;-84
2022/04/12 01:39:47;;;;;;;28.58;12.73;;;;;;;;;;5053065;28;20045;-83
2022/04/12 01:42:32;;;;;;;25.45;13.23;;;;;;;;;;5053924;28;20084;-83
2022/04/12 01:45:18;;;;;;;27.77;12.95;;;;;;;;;;5054241;28;20041;-83
2022/04/12 01:48:03;;;;;;;14.77;8.27;;;;;;;;;;5054117;28;20053;-83
2022/04/12 01:50:49;;;;;;;11.25;6.32;;;;;;;;;;5054480;28;20049;-83
2022/04/12 01:53:35;;;;;;;13.88;6.55;;;;;;;;;;5053191;28;20041;-83
2022/04/12 01:56:19;;;;;;;14.38;6.38;;;;;;;;;;5054432;28;20049;-84
2022/04/12 01:59:04;;;;;;;11.20;6.05;;;;;;;;;;5052863;28;20037;-84
2022/04/12 02:01:50;;;;;;;11.10;5.82;;;;;;;;;;5052894;28;20056;-84
2022/04/12 02:04:34;;;;;;;12.07;6.25;;;;;;;;;;5054016;28;20044;-83
2022/04/12 02:07:20;;;;;;;14.10;7.03;;;;;;;;;;5060084;28;20041;-84
2022/04/12 02:10:06;;;;;;;14.18;6.82;;;;;;;;;;5059755;28;20049;-83
2022/04/12 02:12:51;;;;;;;13.88;6.57;;;;;;;;;;5054200;28;20044;-84
2022/04/12 02:15:37;;;;;;;11.10;6.22;;;;;;;;;;5053520;28;20053;-82
2022/04/12 02:18:22;;;;;;;30.40;11.25;;;;;;;;;;5053773;28;20057;-83
2022/04/12 02:21:08;;;;;;;68.68;20.30;;;;;;;;;;5053295;28;20044;-83
2022/04/12 02:23:53;;;;;;;55.00;18.42;;;;;;;;;;5053923;28;20045;-83
2022/04/12 02:26:39;;;;;;;57.15;18.88;;;;;;;;;;5058909;28;20482;-84
2022/04/12 02:29:25;;;;;;;55.75;17.77;;;;;;;;;;5052161;28;20033;-83
2022/04/12 02:32:10;;;;;;;46.55;16.48;;;;;;;;;;5057515;28;20045;-83
2022/04/12 02:35:00;;;;;;;40.40;12.85;;;;;;;;;;5078679;28;20037;-83
2022/04/12 02:37:45;;;;;;;34.08;12.40;;;;;;;;;;5069954;28;20041;-83
2022/04/12 02:40:32;;;;;;;27.75;11.02;;;;;;;;;;5054687;28;20045;-84
2022/04/12 02:43:17;;;;;;;31.15;11.40;;;;;;;;;;5053195;28;20033;-84
2022/04/12 02:46:02;;;;;;;33.22;12.48;;;;;;;;;;5053821;28;20040;-84
2022/04/12 02:48:48;;;;;;;39.75;14.13;;;;;;;;;;5053198;28;20041;-82
2022/04/12 02:51:33;;;;;;;37.95;14.20;;;;;;;;;;5053105;28;20049;-84
2022/04/12 02:54:19;;;;;;;31.90;13.05;;;;;;;;;;5059550;28;20045;-83
2022/04/12 02:57:05;;;;;;;24.20;11.40;;;;;;;;;;5052775;28;20048;-82
2022/04/12 02:59:50;;;;;;;24.92;11.35;;;;;;;;;;5060606;28;20044;-82
2022/04/12 03:02:36;;;;;;;24.70;10.13;;;;;;;;;;5058994;28;20417;-83
2022/04/12 03:05:22;;;;;;;26.52;10.77;;;;;;;;;;5056572;28;20045;-83
2022/04/12 03:08:07;;;;;;;23.65;10.70;;;;;;;;;;5056327;28;20037;-84
2022/04/12 03:10:52;;;;;;;19.92;10.23;;;;;;;;;;5056654;28;20037;-82
2022/04/12 03:13:38;;;;;;;17.45;9.48;;;;;;;;;;5063780;28;20045;-82
2022/04/12 03:16:23;;;;;;;15.07;9.15;;;;;;;;;;5063750;28;20048;-81
2022/04/12 03:19:09;;;;;;;16.17;9.18;;;;;;;;;;5056159;28;20486;-82
2022/04/12 03:21:55;;;;;;;33.42;15.23;;;;;;;;;;5056754;28;20405;-82
2022/04/12 03:24:40;;;;;;;42.65;18.45;;;;;;;;;;5056542;28;20045;-82
2022/04/12 03:27:26;;;;;;;72.38;29.33;;;;;;;;;;5056548;28;20041;-83
2022/04/12 03:30:12;;;;;;;84.53;32.72;;;;;;;;;;5056831;28;20045;-82
2022/04/12 03:32:57;;;;;;;109.53;40.72;;;;;;;;;;5056035;28;20506;-82
2022/04/12 03:35:43;;;;;;;167.35;51.90;;;;;;;;;;5057029;28;20048;-82
2022/04/12 03:38:29;;;;;;;162.32;50.55;;;;;;;;;;5056675;28;20367;-83
2022/04/12 03:41:24;;;;;;;181.05;56.83;;;;;;;;;;5056721;28;20049;-83
2022/04/12 03:44:10;;;;;;;158.15;50.50;;;;;;;;;;5056293;28;20045;-81
2022/04/12 03:46:55;;;;;;;138.25;44.50;;;;;;;;;;5056013;28;20041;-82
2022/04/12 03:49:40;;;;;;;142.02;44.55;;;;;;;;;;5056195;28;20041;-82
2022/04/12 03:52:25;;;;;;;128.77;40.85;;;;;;;;;;5055771;28;20044;-80
2022/04/12 03:55:11;;;;;;;116.10;37.38;;;;;;;;;;5055033;28;20045;-82
2022/04/12 03:58:00;;;;;;;107.35;35.03;;;;;;;;;;5055986;28;20383;-83
2022/04/12 04:00:46;;;;;;;124.30;41.75;;;;;;;;;;5055708;28;20037;-83
2022/04/12 04:03:31;;;;;;;117.50;41.42;;;;;;;;;;5056135;28;20040;-82
2022/04/12 04:06:17;;;;;;;100.15;35.67;;;;;;;;;;5056180;28;20052;-82
2022/04/12 04:09:03;;;;;;;91.55;33.67;;;;;;;;;;5055399;28;20037;-82
2022/04/12 04:11:48;;;;;;;96.53;31.75;;;;;;;;;;5055660;28;20398;-81
2022/04/12 04:14:34;;;;;;;97.72;35.17;;;;;;;;;;5055629;28;20041;-82
2022/04/12 04:17:21;;;;;;;107.03;35.97;;;;;;;;;;5055649;28;20044;-82
2022/04/12 04:20:07;;;;;;;88.03;30.63;;;;;;;;;;5055836;28;20033;-83
2022/04/12 04:22:51;;;;;;;69.18;27.88;;;;;;;;;;5055364;28;20478;-83
2022/04/12 04:25:38;;;;;;;63.85;26.73;;;;;;;;;;5056218;28;20036;-82
2022/04/12 04:28:29;;;;;;;74.75;24.50;;;;;;;;;;5058676;28;20044;-83
2022/04/12 04:31:15;;;;;;;65.47;24.88;;;;;;;;;;5059572;28;20053;-83
2022/04/12 04:34:00;;;;;;;58.03;24.48;;;;;;;;;;5059205;28;20041;-80
2022/04/12 04:36:46;;;;;;;67.20;23.80;;;;;;;;;;5059246;28;20037;-82
2022/04/12 04:39:31;;;;;;;67.15;25.05;;;;;;;;;;5059841;28;20045;-84
2022/04/12 04:42:20;;;;;;;60.78;24.50;;;;;;;;;;5066535;28;20044;-82
2022/04/12 04:45:06;;;;;;;70.57;24.55;;;;;;;;;;5060449;28;20049;-83
2022/04/12 04:47:56;;;;;;;50.83;19.98;;;;;;;;;;5065916;28;20045;-84
2022/04/12 04:50:41;;;;;;;57.28;24.15;;;;;;;;;;5066273;28;20029;-82
2022/04/12 04:53:26;;;;;;;59.95;26.25;;;;;;;;;;5073569;28;20048;-83
2022/04/12 04:56:12;;;;;;;49.78;21.40;;;;;;;;;;5066941;28;20036;-83
2022/04/12 04:58:58;;;;;;;49.78;21.80;;;;;;;;;;5054651;28;20041;-83
2022/04/12 05:01:44;;;;;;;49.92;21.20;;;;;;;;;;5055092;28;20045;-85
2022/04/12 05:04:29;;;;;;;46.10;19.92;;;;;;;;;;5054635;28;20053;-84
2022/04/12 05:07:25;;;;;;;50.28;21.63;;;;;;;;;;5054037;28;20048;-84
2022/04/12 05:10:19;;;;;;;48.50;22.20;;;;;;;;;;5052986;28;20037;-83
2022/04/12 05:13:04;;;;;;;54.53;24.00;;;;;;;;;;5054165;28;20049;-84
2022/04/12 05:15:50;;;;;;;58.30;25.67;;;;;;;;;;5054880;28;20048;-83
2022/04/12 05:18:35;;;;;;;71.00;30.05;;;;;;;;;;5054338;28;20041;-83
2022/04/12 05:21:21;;;;;;;63.30;30.23;;;;;;;;;;5053730;28;20045;-83
2022/04/12 05:24:06;;;;;;;83.45;34.13;;;;;;;;;;5054544;28;20041;-83
2022/04/12 05:26:52;;;;;;;82.63;35.30;;;;;;;;;;5053107;28;20494;-82
2022/04/12 05:29:38;;;;;;;68.82;33.72;;;;;;;;;;5054464;28;20390;-83
2022/04/12 05:32:23;;;;;;;65.85;31.27;;;;;;;;;;5054454;28;20045;-84
2022/04/12 05:35:10;;;;;;;52.53;27.15;;;;;;;;;;5054110;28;20041;-81
2022/04/12 05:37:56;;;;;;;55.42;25.20;;;;;;;;;;5054225;28;20049;-83
2022/04/12 05:40:41;;;;;;;51.65;24.73;;;;;;;;;;5053716;28;20049;-83
2022/04/12 05:43:26;;;;;;;58.92;28.90;;;;;;;;;;5054235;28;20044;-83
2022/04/12 05:46:11;;;;;;;61.33;28.63;;;;;;;;;;5053987;28;20057;-82
2022/04/12 05:48:57;;;;;;;50.15;24.02;;;;;;;;;;5053728;28;20041;-83
2022/04/12 05:51:42;;;;;;;104.18;39.47;;;;;;;;;;5054005;28;20444;-84
2022/04/12 05:54:28;;;;;;;59.80;30.63;;;;;;;;;;5053540;28;20045;-84
2022/04/12 05:57:14;;;;;;;63.22;29.40;;;;;;;;;;5053876;28;20045;-83
2022/04/12 05:59:59;;;;;;;59.38;27.58;;;;;;;;;;5053917;28;20037;-84
2022/04/12 06:02:46;;;;;;;54.78;27.75;;;;;;;;;;5053400;28;20041;-84
2022/04/12 06:05:32;;;;;;;432.60;180.05;;;;;;;;;;5053789;28;20041;-84
2022/04/12 06:08:17;;;;;;;43.53;21.98;;;;;;;;;;5053574;28;20045;-84
2022/04/12 06:11:02;;;;;;;33.03;19.27;;;;;;;;;;5053826;28;20394;-85
2022/04/12 06:13:48;;;;;;;31.42;16.25;;;;;;;;;;5054019;28;20474;-84
2022/04/12 06:16:33;;;;;;;35.88;17.80;;;;;;;;;;5053162;28;20044;-84
2022/04/12 06:19:19;;;;;;;34.00;16.98;;;;;;;;;;5053919;28;20049;-84
2022/04/12 06:22:04;;;;;;;38.75;17.00;;;;;;;;;;5060571;28;20049;-83
2022/04/12 06:24:49;;;;;;;27.85;16.42;;;;;;;;;;5053245;28;20044;-83
2022/04/12 06:27:39;;;;;;;36.33;17.85;;;;;;;;;;5053675;28;20065;-83
2022/04/12 06:30:27;;;;;;;36.28;17.40;;;;;;;;;;5053170;28;20486;-84
2022/04/12 06:33:12;;;;;;;32.08;16.45;;;;;;;;;;5053372;28;20041;-83
2022/04/12 06:35:57;;;;;;;32.63;14.73;;;;;;;;;;5053515;28;20045;-81
2022/04/12 06:38:42;;;;;;;28.60;15.52;;;;;;;;;;5052675;28;20041;-83
2022/04/12 06:41:28;;;;;;;24.05;13.23;;;;;;;;;;5059548;28;20402;-83
2022/04/12 06:44:13;;;;;;;26.65;14.05;;;;;;;;;;5052564;28;20041;-82
2022/04/12 06:47:03;;;;;;;22.30;13.43;;;;;;;;;;5060601;28;20045;-82
2022/04/12 06:49:50;;;;;;;21.20;12.05;;;;;;;;;;5053374;28;20045;-81
2022/04/12 06:52:37;;;;;;;19.33;10.60;;;;;;;;;;5052891;28;20052;-82
2022/04/12 06:55:24;;;;;;;26.65;12.23;;;;;;;;;;5053344;28;20045;-83
2022/04/12 06:58:08;;;;;;;22.95;12.32;;;;;;;;;;5052735;28;20045;-83
2022/04/12 07:00:54;;;;;;;52.53;23.67;;;;;;;;;;5059932;28;20053;-83
2022/04/12 07:03:39;;;;;;;100.88;47.58;;;;;;;;;;5072796;28;20037;-83
2022/04/12 07:06:24;;;;;;;27.17;12.43;;;;;;;;;;5070603;28;20053;-83
2022/04/12 07:09:17;;;;;;;20.00;10.73;;;;;;;;;;5060568;28;20044;-83
2022/04/12 07:12:03;;;;;;;27.35;13.65;;;;;;;;;;5053056;28;20049;-83
2022/04/12 07:14:48;;;;;;;21.92;12.75;;;;;;;;;;5053025;28;20494;-83
2022/04/12 07:17:35;;;;;;;25.42;12.82;;;;;;;;;;5053643;28;20041;-83
2022/04/12 07:20:20;;;;;;;19.60;11.30;;;;;;;;;;5053027;28;20044;-83
2022/04/12 07:23:05;;;;;;;19.92;10.52;;;;;;;;;;5053101;28;20041;-83
2022/04/12 07:25:52;;;;;;;21.60;11.18;;;;;;;;;;5060039;28;20037;-83
2022/04/12 07:28:36;;;;;;;23.05;11.30;;;;;;;;;;5052282;28;20041;-84
2022/04/12 07:31:21;;;;;;;19.90;10.98;;;;;;;;;;5053639;28;20045;-83
2022/04/12 07:34:07;;;;;;;23.75;10.55;;;;;;;;;;5052758;28;20394;-83
2022/04/12 07:36:54;;;;;;;31.08;10.98;;;;;;;;;;5052780;28;20045;-83
2022/04/12 07:39:40;;;;;;;20.13;10.35;;;;;;;;;;5053437;28;20049;-84
2022/04/12 07:42:26;;;;;;;17.98;9.32;;;;;;;;;;5052353;28;20041;-84
2022/04/12 07:45:11;;;;;;;15.88;7.88;;;;;;;;;;5052909;28;20041;-83
2022/04/12 07:47:57;;;;;;;14.20;7.28;;;;;;;;;;5051105;28;20045;-84
2022/04/12 07:50:42;;;;;;;11.23;7.53;;;;;;;;;;5052762;28;20053;-83
2022/04/12 07:53:28;;;;;;;12.98;6.75;;;;;;;;;;5056117;28;20049;-84
2022/04/12 07:56:14;;;;;;;16.52;7.28;;;;;;;;;;5056164;28;20048;-83
2022/04/12 07:59:01;;;;;;;12.15;7.90;;;;;;;;;;5056319;28;20041;-83
2022/04/12 08:01:47;;;;;;;10.68;7.38;;;;;;;;;;5056193;28;20048;-84
2022/04/12 08:04:32;;;;;;;23.83;8.73;;;;;;;;;;5055879;28;20048;-83
2022/04/12 08:07:18;;;;;;;16.77;8.38;;;;;;;;;;5056094;28;20053;-84
2022/04/12 08:10:04;;;;;;;12.88;7.85;;;;;;;;;;5056052;28;20041;-83
2022/04/12 08:12:52;;;;;;;14.30;8.13;;;;;;;;;;5059017;28;20037;-85
2022/04/12 08:15:38;;;;;;;14.65;7.82;;;;;;;;;;5057611;28;20041;-83
2022/04/12 08:18:24;;;;;;;13.98;8.00;;;;;;;;;;5055423;28;20422;-84
2022/04/12 08:21:09;;;;;;;12.15;8.38;;;;;;;;;;5056326;28;20045;-84
2022/04/12 08:23:53;;;;;;;14.60;8.50;;;;;;;;;;5055611;28;20045;-86
2022/04/12 08:26:39;;;;;;;21.30;8.90;;;;;;;;;;5055343;28;20049;-83
2022/04/12 08:29:25;;;;;;;14.15;7.57;;;;;;;;;;5056015;28;20041;-81
2022/04/12 08:32:11;;;;;;;14.75;8.07;;;;;;;;;;5054893;28;20037;-78
2022/04/12 08:34:56;;;;;;;13.60;8.02;;;;;;;;;;5062383;28;20486;-78
2022/04/12 08:37:43;;;;;;;18.27;8.02;;;;;;;;;;5055264;28;20041;-79
2022/04/12 08:40:31;;;;;;;16.63;8.45;;;;;;;;;;5062265;28;20041;-77
2022/04/12 08:43:20;;;;;;;15.43;8.30;;;;;;;;;;5062394;28;20390;-76
2022/04/12 08:46:06;;;;;;;13.57;7.93;;;;;;;;;;5061505;28;20486;-76
2022/04/12 08:48:56;;;;;;;23.63;8.82;;;;;;;;;;5055740;28;20394;-76
2022/04/12 08:51:44;;;;;;;16.17;7.85;;;;;;;;;;5055805;28;20037;-77
2022/04/12 08:54:32;;;;;;;17.00;8.68;;;;;;;;;;5061926;28;20041;-76
2022/04/12 08:57:16;;;;;;;16.63;9.48;;;;;;;;;;5062399;28;20474;-76
2022/04/12 09:00:05;;;;;;;16.70;8.57;;;;;;;;;;5054388;28;20398;-75
2022/04/12 09:02:59;;;;;;;14.35;7.60;;;;;;;;;;5055074;28;20041;-75
2022/04/12 09:05:44;;;;;;;15.75;7.70;;;;;;;;;;5055017;28;20057;-76
2022/04/12 09:08:32;;;;;;;15.80;6.60;;;;;;;;;;5054579;28;20045;-76
2022/04/12 09:11:18;;;;;;;10.82;6.10;;;;;;;;;;5061880;28;20045;-76
2022/04/12 09:14:03;;;;;;;11.57;6.25;;;;;;;;;;5054097;28;20045;-78
2022/04/12 09:16:49;;;;;;;9.60;5.75;;;;;;;;;;5070819;28;20033;-77
2022/04/12 09:19:49;;;;;;;11.68;5.85;;;;;;;;;;5072760;28;20037;-80
2022/04/12 09:22:34;;;;;;;13.88;5.22;;;;;;;;;;5055749;28;20048;-76
2022/04/12 09:25:20;;;;;;;10.02;5.30;;;;;;;;;;5055185;28;20037;-77
2022/04/12 09:28:06;;;;;;;6.00;3.58;;;;;;;;;;5054021;28;20049;-76
2022/04/12 09:30:53;;;;;;;20.48;10.32;;;;;;;;;;5061400;28;20041;-78
2022/04/12 09:33:41;;;;;;;10.93;5.00;;;;;;;;;;5061071;28;20499;-77
2022/04/12 09:36:26;;;;;;;10.52;4.95;;;;;;;;;;5053863;28;20037;-76
2022/04/12 09:39:16;;;;;;;12.55;5.03;;;;;;;;;;5054661;28;20038;-77
2022/04/12 09:42:02;;;;;;;7.00;3.70;;;;;;;;;;5053695;28;20037;-78
2022/04/12 09:45:01;;;;;;;6.88;3.05;;;;;;;;;;5054151;28;20052;-77
2022/04/12 09:47:50;;;;;;;10.48;3.10;;;;;;;;;;5061167;28;20033;-79
2022/04/12 09:50:36;;;;;;;4.32;2.67;;;;;;;;;;5060222;28;20041;-80
2022/04/12 09:53:37;;;;;;;6.57;2.70;;;;;;;;;;5054181;28;20041;-80
2022/04/12 09:56:24;;;;;;;9.52;3.38;;;;;;;;;;5053653;28;20482;-81
2022/04/12 09:59:09;;;;;;;7.47;2.70;;;;;;;;;;5053957;28;20040;-82
2022/04/12 10:01:55;;;;;;;5.53;2.17;;;;;;;;;;5060641;28;20049;-81
2022/04/12 10:04:42;;;;;;;3.13;1.77;;;;;;;;;;5053425;28;20045;-81
2022/04/12 10:07:31;;;;;;;7.55;2.25;;;;;;;;;;5053881;28;20064;-82
2022/04/12 10:10:19;;;;;;;5.35;2.00;;;;;;;;;;5053168;28;20033;-82
2022/04/12 10:13:04;;;;;;;4.10;2.15;;;;;;;;;;5053140;28;20053;-80
2022/04/12 10:15:51;;;;;;;5.50;1.98;;;;;;;;;;5054101;28;20041;-80
2022/04/12 10:18:37;;;;;;;7.50;2.22;;;;;;;;;;5058792;28;20053;-81
2022/04/12 10:21:22;;;;;;;4.95;1.88;;;;;;;;;;5053609;28;20037;-78
2022/04/12 10:24:10;;;;;;;2.13;1.60;;;;;;;;;;5053771;28;20037;-75
2022/04/12 10:26:57;;;;;;;3.75;2.03;;;;;;;;;;5058226;28;20402;-76
2022/04/12 10:30:22;;;;;;;2.80;1.88;;;;;;;;;;5060123;28;20037;-76
2022/04/12 10:33:16;;;;;;;5.50;2.30;;;;;;;;;;5052398;28;20049;-75
2022/04/12 10:36:02;;;;;;;4.63;1.98;;;;;;;;;;5053537;28;20037;-76
2022/04/12 10:38:49;;;;;;;4.55;2.22;;;;;;;;;;5053100;28;20057;-76
2022/04/12 10:41:38;;;;;;;7.53;2.47;;;;;;;;;;5059953;28;20045;-77
2022/04/12 10:44:25;;;;;;;3.83;2.83;;;;;;;;;;5060175;28;20048;-78
2022/04/12 10:47:24;;;;;;;3.38;2.17;;;;;;;;;;5059425;28;20045;-76
2022/04/12 10:50:13;;;;;;;6.57;2.20;;;;;;;;;;5053371;28;20041;-76
2022/04/12 10:52:58;;;;;;;3.05;1.65;;;;;;;;;;5059424;28;20045;-76
2022/04/12 10:55:44;;;;;;;2.55;1.50;;;;;;;;;;5052701;28;20403;-76
2022/04/12 10:58:31;;;;;;;2.20;1.40;;;;;;;;;;5053197;28;20044;-77
2022/04/12 11:01:30;;;;;;;3.97;2.42;;;;;;;;;;5052649;28;20390;-76
2022/04/12 11:04:26;;;;;;;5.22;1.73;;;;;;;;;;5053446;28;20049;-77
2022/04/12 11:07:27;;;;;;;3.40;1.67;;;;;;;;;;5052503;28;20045;-77
2022/04/12 11:10:12;;;;;;;3.80;1.85;;;;;;;;;;5058561;28;20041;-78
2022/04/12 11:13:10;;;;;;;5.00;1.70;;;;;;;;;;5052993;28;20093;-76
2022/04/12 11:15:59;;;;;;;10.50;2.17;;;;;;;;;;5052448;28;20041;-77
2022/04/12 11:18:53;;;;;;;5.65;1.77;;;;;;;;;;5059692;28;20048;-77
2022/04/12 11:21:48;;;;;;;4.63;1.85;;;;;;;;;;5052734;28;20053;-77
2022/04/12 11:24:33;;;;;;;3.85;2.08;;;;;;;;;;5052830;28;20053;-75
2022/04/12 11:27:26;;;;;;;3.75;2.17;;;;;;;;;;5056523;28;20045;-76
2022/04/12 11:30:15;;;;;;;3.22;1.73;;;;;;;;;;5069354;28;20041;-77
2022/04/12 11:33:00;;;;;;;3.08;1.88;;;;;;;;;;5077680;28;20048;-77
2022/04/12 11:35:46;;;;;;;4.18;2.20;;;;;;;;;;5057624;28;20045;-75
2022/04/12 11:38:31;;;;;;;5.32;1.77;;;;;;;;;;5056440;28;20045;-76
2022/04/12 11:41:16;;;;;;;2.60;1.83;;;;;;;;;;5063212;28;20045;-77
2022/04/12 11:44:03;;;;;;;4.35;2.60;;;;;;;;;;5062321;28;20386;-76
2022/04/12 11:46:56;;;;;;;6.85;2.33;;;;;;;;;;5054797;28;20049;-76
2022/04/12 11:49:43;;;;;;;8.48;2.42;;;;;;;;;;5056155;28;20049;-78
2022/04/12 11:52:30;;;;;;;2.63;1.80;;;;;;;;;;5062593;28;20045;-80
2022/04/12 11:55:16;;;;;;;4.40;2.53;;;;;;;;;;5055369;28;20068;-81
2022/04/12 11:58:01;;;;;;;3.63;2.00;;;;;;;;;;5056435;28;20041;-82
2022/04/12 12:00:49;;;;;;;10.90;2.22;;;;;;;;;;5057189;28;20490;-82
2022/04/12 12:03:35;;;;;;;4.05;2.17;;;;;;;;;;5055958;28;20041;-80
2022/04/12 12:06:21;;;;;;;4.50;2.17;;;;;;;;;;5063875;28;20041;-79
2022/04/12 12:09:06;;;;;;;7.70;2.38;;;;;;;;;;5062973;28;20041;-80
2022/04/12 12:11:56;;;;;;;3.60;2.00;;;;;;;;;;5056337;28;20064;-78
2022/04/12 12:14:42;;;;;;;5.30;2.20;;;;;;;;;;5056285;28;20045;-79
2022/04/12 12:17:28;;;;;;;5.93;2.75;;;;;;;;;;5062428;28;20045;-80
2022/04/12 12:20:14;;;;;;;4.70;1.95;;;;;;;;;;5055897;28;20041;-80
2022/04/12 12:23:03;;;;;;;3.97;1.90;;;;;;;;;;5056665;28;20049;-80
2022/04/12 12:25:50;;;;;;;10.43;2.08;;;;;;;;;;5062039;28;20145;-80
2022/04/12 12:28:40;;;;;;;5.93;1.88;;;;;;;;;;5056375;28;20390;-79
2022/04/12 12:31:26;;;;;;;8.80;2.50;;;;;;;;;;5055187;28;20090;-79
2022/04/12 12:34:32;;;;;;;3.55;1.98;;;;;;;;;;5055343;28;20044;-80
2022/04/12 12:37:22;;;;;;;6.05;2.20;;;;;;;;;;5055252;28;20040;-80
2022/04/12 12:40:27;;;;;;;6.93;2.15;;;;;;;;;;5055110;28;20057;-80
2022/04/12 12:43:14;;;;;;;3.65;2.40;;;;;;;;;;5062309;28;20048;-80
2022/04/12 12:46:05;;;;;;;5.88;2.80;;;;;;;;;;5055185;28;20044;-78
2022/04/12 12:49:15;;;;;;;6.43;2.00;;;;;;;;;;5063195;28;20053;-80
2022/04/12 12:52:04;;;;;;;5.20;2.05;;;;;;;;;;5062492;28;20045;-79
2022/04/12 12:54:58;;;;;;;4.85;2.35;;;;;;;;;;5056661;28;20053;-80
2022/04/12 12:57:49;;;;;;;3.15;1.90;;;;;;;;;;5055581;28;20045;-81
2022/04/12 13:00:35;;;;;;;7.82;2.28;;;;;;;;;;5054301;28;20041;-78
2022/04/12 13:03:22;;;;;;;6.88;2.38;;;;;;;;;;5054940;28;20044;-79
2022/04/12 13:06:10;;;;;;;3.85;2.10;;;;;;;;;;5054908;28;20037;-80
2022/04/12 13:09:05;;;;;;;6.75;2.50;;;;;;;;;;5060874;28;20045;-80
2022/04/12 13:11:50;;;;;;;5.93;2.53;;;;;;;;;;5055010;28;20049;-80
2022/04/12 13:14:37;;;;;;;6.25;2.45;;;;;;;;;;5054098;28;20040;-80
2022/04/12 13:17:22;;;;;;;6.97;2.20;;;;;;;;;;5054482;28;20479;-81
2022/04/12 13:20:10;;;;;;;4.68;2.58;;;;;;;;;;5055253;28;20390;-80
2022/04/12 13:22:57;;;;;;;9.48;3.80;;;;;;;;;;5054042;28;20045;-79
2022/04/12 13:25:42;;;;;;;6.45;3.75;;;;;;;;;;5054691;28;20044;-80
2022/04/12 13:28:28;;;;;;;6.47;2.60;;;;;;;;;;5054592;28;20045;-80
2022/04/12 13:31:13;;;;;;;3.35;2.05;;;;;;;;;;5054446;28;20049;-81
2022/04/12 13:33:59;;;;;;;5.85;2.90;;;;;;;;;;5054061;28;20045;-80
2022/04/12 13:36:45;;;;;;;5.25;2.03;;;;;;;;;;5053711;28;20049;-81
2022/04/12 13:39:30;;;;;;;7.47;2.28;;;;;;;;;;5054603;28;20037;-80
2022/04/12 13:42:16;;;;;;;5.40;2.33;;;;;;;;;;5055166;28;20045;-81
2022/04/12 13:45:02;;;;;;;9.73;2.92;;;;;;;;;;5069086;28;20056;-76
2022/04/12 13:47:48;;;;;;;4.05;2.20;;;;;;;;;;5067812;28;20041;-77
2022/04/12 13:50:33;;;;;;;3.58;2.10;;;;;;;;;;5061718;28;20045;-76
2022/04/12 13:53:20;;;;;;;5.70;2.22;;;;;;;;;;5053647;28;20056;-77
2022/04/12 13:56:06;;;;;;;4.80;2.17;;;;;;;;;;5054305;28;20048;-76
2022/04/12 13:58:51;;;;;;;5.13;2.08;;;;;;;;;;5053876;28;20049;-76
2022/04/12 14:01:36;;;;;;;6.40;2.40;;;;;;;;;;5060980;28;20044;-77
2022/04/12 14:04:23;;;;;;;5.22;2.15;;;;;;;;;;5053466;28;20041;-76
2022/04/12 14:07:09;;;;;;;5.22;2.00;;;;;;;;;;5053800;28;20053;-77
2022/04/12 14:09:56;;;;;;;5.68;2.20;;;;;;;;;;5053752;28;20045;-78
2022/04/12 14:12:41;;;;;;;6.68;2.38;;;;;;;;;;5053119;28;20040;-78
2022/04/12 14:15:27;;;;;;;3.72;1.95;;;;;;;;;;5060275;28;20045;-77
2022/04/12 14:18:14;;;;;;;6.22;1.88;;;;;;;;;;5053238;28;20111;-77
2022/04/12 14:20:58;;;;;;;11.10;2.05;;;;;;;;;;5053369;28;20060;-75
2022/04/12 14:23:44;;;;;;;4.15;1.95;;;;;;;;;;5052843;28;20049;-77
2022/04/12 14:26:31;;;;;;;4.43;2.85;;;;;;;;;;5055351;28;20041;-79
2022/04/12 14:29:16;;;;;;;6.55;2.10;;;;;;;;;;5053706;28;20041;-78
2022/04/12 14:32:01;;;;;;;11.90;2.10;;;;;;;;;;5060147;28;20048;-78
2022/04/12 14:34:57;;;;;;;2.40;1.70;;;;;;;;;;5052861;28;20053;-79
2022/04/12 14:37:43;;;;;;;3.78;1.73;;;;;;;;;;5053648;28;20457;-76
2022/04/12 14:40:30;;;;;;;2.67;1.95;;;;;;;;;;5059811;28;20398;-78
2022/04/12 14:43:16;;;;;;;2.80;1.75;;;;;;;;;;5060355;28;20045;-77
2022/04/12 14:46:03;;;;;;;4.43;2.50;;;;;;;;;;5060093;28;20041;-77
2022/04/12 14:48:49;;;;;;;5.90;2.38;;;;;;;;;;5053132;28;20053;-77
2022/04/12 14:51:36;;;;;;;14.85;2.70;;;;;;;;;;5053551;28;20041;-78
2022/04/12 14:54:21;;;;;;;6.05;2.30;;;;;;;;;;5051458;28;20045;-76
2022/04/12 14:57:06;;;;;;;5.78;2.08;;;;;;;;;;5052924;28;20425;-77
2022/04/12 14:59:51;;;;;;;4.72;2.20;;;;;;;;;;5061400;28;20033;-76
2022/04/12 15:02:37;;;;;;;4.95;2.35;;;;;;;;;;5063359;28;20037;-78
2022/04/12 15:05:22;;;;;;;2.92;1.83;;;;;;;;;;5057544;28;20045;-80
2022/04/12 15:08:08;;;;;;;9.77;3.30;;;;;;;;;;5056742;28;20040;-79
2022/04/12 15:10:54;;;;;;;12.07;3.25;;;;;;;;;;5057133;28;20049;-77
2022/04/12 15:13:39;;;;;;;13.43;2.72;;;;;;;;;;5063679;28;20036;-77
2022/04/12 15:16:25;;;;;;;6.43;1.90;;;;;;;;;;5056559;28;20045;-77
2022/04/12 15:19:10;;;;;;;4.00;1.90;;;;;;;;;;5057763;28;20442;-77
2022/04/12 15:21:56;;;;;;;4.97;1.90;;;;;;;;;;5063241;28;20475;-77
2022/04/12 15:24:41;;;;;;;4.28;1.95;;;;;;;;;;5057661;28;20045;-77
2022/04/12 15:27:27;;;;;;;9.02;2.70;;;;;;;;;;5057442;28;20398;-78
2022/04/12 15:30:13;;;;;;;7.00;2.60;;;;;;;;;;5056249;28;20045;-79
2022/04/12 15:32:59;;;;;;;6.28;2.88;;;;;;;;;;5061391;28;20040;-78
2022/04/12 15:35:45;;;;;;;11.10;6.05;;;;;;;;;;5060292;28;20075;-76
2022/04/12 15:38:30;;;;;;;3.85;2.03;;;;;;;;;;5055868;28;20049;-77
2022/04/12 15:41:17;;;;;;;7.88;2.80;;;;;;;;;;5063322;28;20037;-77
2022/04/12 15:44:03;;;;;;;8.35;3.20;;;;;;;;;;5063161;28;20049;-77
2022/04/12 15:46:49;;;;;;;9.85;3.80;;;;;;;;;;5061403;28;20045;-79
2022/04/12 15:49:35;;;;;;;11.18;3.70;;;;;;;;;;5055804;28;20057;-78
2022/04/12 15:52:23;;;;;;;5.75;2.40;;;;;;;;;;5062129;28;20033;-79
2022/04/12 15:55:09;;;;;;;9.07;3.00;;;;;;;;;;5060477;28;20044;-78
2022/04/12 15:57:55;;;;;;;6.80;3.80;;;;;;;;;;5081962;28;20021;-78
2022/04/12 16:00:41;;;;;;;9.57;3.88;;;;;;;;;;5066417;28;20045;-78
2022/04/12 16:03:26;;;;;;;5.57;2.60;;;;;;;;;;5058709;28;20045;-80
2022/04/12 16:06:14;;;;;;;13.70;3.78;;;;;;;;;;5056908;28;20041;-79
2022/04/12 16:09:01;;;;;;;7.60;4.03;;;;;;;;;;5056710;28;20044;-78
2022/04/12 16:11:47;;;;;;;8.95;4.00;;;;;;;;;;5055170;28;20457;-77
2022/04/12 16:14:32;;;;;;;8.50;3.53;;;;;;;;;;5062444;28;20044;-78
2022/04/12 16:17:20;;;;;;;5.57;3.10;;;;;;;;;;5056337;28;20037;-79
2022/04/12 16:20:07;;;;;;;14.52;4.00;;;;;;;;;;5062320;28;20045;-79
2022/04/12 16:22:55;;;;;;;6.05;3.15;;;;;;;;;;5063389;28;20045;-80
2022/04/12 16:25:42;;;;;;;4.85;2.58;;;;;;;;;;5064129;28;20041;-78
2022/04/12 16:28:28;;;;;;;7.03;3.10;;;;;;;;;;5055738;28;20045;-78